Terminal Aerodrome Forecast
Issued by NWS Sterling, VA

Home | Current Version | Previous Version | Text Only | Print | Product List | Glossary On
Versions: 1 2 3 4 5 6 7 8 9 10 11 12 13 14 15 16 17 18 19 20 21 22 23 24 25 26 27 28 29 30 31 32
000
FTUS41 KLWX 240859 AAA
TAFBWI
TAF AMD
KBWI 240859Z 2409/2512 07008KT 6SM -RA SCT025 OVC050
     FM241200 05012G22KT 6SM -RA SCT025 OVC050
     FM250000 05012G20KT 3SM -RA BKN015 OVC025
     FM250300 04010G18KT 3SM -RA BR BKN008 OVC015=

USA.gov is the U.S. government's official web portal to all federal, state and local government web resources and services.